Time;durP1;ratioP1;P1;durP2;ratioP2;P2;SDS_P1;SDS_P2;PMS_P1;PMS_P2;Temp;Humidity;BMP_temperature;BMP_pressure;BME280_temperature;BME280_humidity;BME280_pressure;Samples;Min_cycle;Max_cycle;Signal;HPM_P1;HPM_P2
2022/12/04 00:01:57;;;;;;;13.18;8.07;;;;;;;18.29;32.53;101596.72;16136069;19;130598;-45
2022/12/04 00:07:19;;;;;;;10.95;8.10;;;;;;;18.25;32.56;101581.63;16134372;19;130556;-50
2022/12/04 00:12:41;;;;;;;10.55;8.43;;;;;;;18.21;32.25;101580.41;16137635;19;130029;-50
2022/12/04 00:18:02;;;;;;;11.93;7.82;;;;;;;18.18;32.01;101583.63;16134862;19;129691;-51
2022/12/04 00:23:24;;;;;;;12.85;7.90;;;;;;;18.12;32.40;101583.44;16131511;19;129655;-49
2022/12/04 00:28:47;;;;;;;10.93;7.90;;;;;;;18.11;32.15;101589.22;16132161;19;130319;-51
2022/12/04 00:34:09;;;;;;;11.60;8.02;;;;;;;18.07;32.33;101579.66;16133738;19;130876;-51
2022/12/04 00:39:31;;;;;;;10.43;7.45;;;;;;;18.03;32.25;101581.22;16133394;19;129969;-47
2022/12/04 00:44:53;;;;;;;14.07;7.85;;;;;;;18.00;32.22;101585.25;16131462;19;130036;-50
2022/12/04 00:50:15;;;;;;;10.18;7.93;;;;;;;17.98;32.32;101579.09;16131880;19;129508;-50
2022/12/04 00:55:38;;;;;;;12.05;8.23;;;;;;;17.92;32.35;101574.47;16132601;19;129204;-51
2022/12/04 01:01:02;;;;;;;10.68;7.90;;;;;;;17.92;32.44;101580.03;16130423;19;129576;-51
2022/12/04 01:06:27;;;;;;;12.35;8.25;;;;;;;17.88;32.50;101574.09;16129415;19;129652;-50
2022/12/04 01:11:48;;;;;;;10.73;7.95;;;;;;;17.83;32.52;101580.31;16128324;19;130870;-52
2022/12/04 01:17:10;;;;;;;10.90;8.38;;;;;;;17.81;32.47;101578.81;16130584;19;129777;-50
2022/12/04 01:22:32;;;;;;;12.45;8.43;;;;;;;17.80;32.12;101577.97;16131486;19;129486;-49
2022/12/04 01:27:53;;;;;;;12.30;8.68;;;;;;;17.77;32.17;101583.13;16132478;19;129798;-51
2022/12/04 01:33:15;;;;;;;12.43;7.80;;;;;;;17.74;32.45;101581.63;16132272;19;129430;-51
2022/12/04 01:38:37;;;;;;;12.05;7.82;;;;;;;17.73;32.12;101568.03;16129686;19;129927;-51
2022/12/04 01:44:25;;;;;;;10.75;7.80;;;;;;;17.69;32.45;101568.47;16128623;19;129678;-50
2022/12/04 01:49:47;;;;;;;11.90;8.15;;;;;;;17.68;32.21;101563.19;16127387;19;129435;-48
2022/12/04 01:55:09;;;;;;;12.00;8.15;;;;;;;17.65;32.34;101555.31;16128479;19;129602;-51
2022/12/04 02:00:31;;;;;;;11.45;8.18;;;;;;;17.62;32.07;101555.75;16129317;19;134341;-51
2022/12/04 02:05:53;;;;;;;10.38;8.02;;;;;;;17.60;32.01;101560.69;16127378;19;129452;-52
2022/12/04 02:11:40;;;;;;;12.80;7.93;;;;;;;17.58;32.00;101552.59;16124838;19;130710;-51
2022/12/04 02:17:12;;;;;;;12.02;8.45;;;;;;;17.56;32.32;101551.97;16125441;19;130062;-51
2022/12/04 02:23:04;;;;;;;12.02;8.95;;;;;;;17.53;31.94;101558.78;16124615;19;130051;-51
2022/12/04 02:28:39;;;;;;;11.50;8.40;;;;;;;17.51;32.29;101563.66;16124875;19;130668;-51
2022/12/04 02:34:11;;;;;;;11.82;7.97;;;;;;;17.50;32.41;101561.13;16126602;19;130393;-50
2022/12/04 02:39:35;;;;;;;13.18;8.45;;;;;;;17.46;31.98;101566.28;16126335;19;130056;-48
2022/12/04 02:45:02;;;;;;;12.73;8.18;;;;;;;17.44;32.40;101562.03;16124491;19;129842;-48
2022/12/04 02:50:25;;;;;;;13.38;8.98;;;;;;;17.41;31.95;101552.25;16121414;19;129808;-51
2022/12/04 02:55:52;;;;;;;11.65;8.38;;;;;;;17.39;32.13;101541.44;16123841;19;129690;-48
2022/12/04 03:01:20;;;;;;;13.25;8.52;;;;;;;17.38;31.85;101538.88;16125298;19;130432;-46
2022/12/04 03:06:51;;;;;;;13.43;9.20;;;;;;;17.36;31.99;101543.75;16121545;19;129253;-45
2022/12/04 03:12:40;;;;;;;12.57;9.02;;;;;;;17.34;32.20;101543.16;16122712;19;129874;-43
2022/12/04 03:18:08;;;;;;;11.02;7.88;;;;;;;17.30;31.83;101544.66;16121670;19;129647;-44
2022/12/04 03:23:36;;;;;;;12.63;9.25;;;;;;;17.28;32.27;101544.91;16121603;19;130075;-45
2022/12/04 03:29:05;;;;;;;12.95;9.68;;;;;;;17.26;31.77;101544.28;16122095;19;129136;-46
2022/12/04 03:34:33;;;;;;;13.68;8.90;;;;;;;17.26;32.24;101533.22;16119623;19;129449;-44
2022/12/04 03:40:10;;;;;;;11.10;8.52;;;;;;;17.26;31.82;101540.66;16121938;19;130367;-45
2022/12/04 03:45:53;;;;;;;13.80;8.82;;;;;;;17.21;32.24;101531.13;16122795;19;129385;-45
2022/12/04 03:51:46;;;;;;;12.27;9.18;;;;;;;17.20;31.90;101529.41;16119682;19;129812;-44
2022/12/04 03:57:29;;;;;;;12.55;9.52;;;;;;;17.18;31.75;101537.09;16116723;19;129373;-44
2022/12/04 04:03:18;;;;;;;13.23;8.82;;;;;;;17.15;32.21;101539.44;16116542;19;129895;-43
2022/12/04 04:08:44;;;;;;;11.63;8.68;;;;;;;17.13;32.00;101533.28;16119405;19;129223;-45
2022/12/04 04:25:46;;;;;;;11.23;8.27;;;;;;;17.08;31.79;101536.72;16118076;19;129435;-46
2022/12/04 04:31:13;;;;;;;11.32;8.07;;;;;;;17.06;32.16;101533.31;16115984;19;129188;-44
2022/12/04 04:36:52;;;;;;;11.82;8.43;;;;;;;17.05;32.13;101523.34;16126790;19;130946;-45
2022/12/04 04:42:25;;;;;;;11.50;8.45;;;;;;;17.04;32.02;101527.16;16129205;19;130207;-43
2022/12/04 04:47:59;;;;;;;12.85;8.18;;;;;;;17.01;32.01;101527.59;16132111;19;128894;-43
2022/12/04 04:53:28;;;;;;;12.50;8.73;;;;;;;17.00;31.92;101539.72;16130780;19;130213;-43
2022/12/04 04:58:50;;;;;;;12.23;8.23;;;;;;;16.99;32.19;101532.50;16130474;19;129301;-43
2022/12/04 05:04:12;;;;;;;11.13;8.27;;;;;;;16.99;31.95;101549.06;16130346;19;129472;-43
2022/12/04 05:09:34;;;;;;;12.13;8.13;;;;;;;16.98;32.07;101542.72;16129873;19;130169;-45
2022/12/04 05:15:01;;;;;;;10.75;8.40;;;;;;;16.97;31.74;101540.19;16128605;19;129421;-45
2022/12/04 05:20:23;;;;;;;11.05;7.90;;;;;;;16.95;31.73;101539.53;16126898;19;129791;-43
2022/12/04 05:25:45;;;;;;;11.75;8.25;;;;;;;16.92;32.03;101533.38;16127878;19;129419;-42
2022/12/04 05:31:06;;;;;;;10.68;8.43;;;;;;;16.91;31.98;101534.44;16125153;19;129657;-44
2022/12/04 05:36:28;;;;;;;12.40;8.23;;;;;;;16.90;31.88;101530.00;16129483;19;131181;-44
2022/12/04 05:41:50;;;;;;;12.57;8.68;;;;;;;16.88;31.89;101529.34;16126142;19;130006;-44
2022/12/04 05:47:12;;;;;;;10.20;7.95;;;;;;;16.87;31.90;101532.34;16127354;19;129734;-44
2022/12/04 05:52:33;;;;;;;11.77;8.55;;;;;;;16.84;32.13;101525.34;16129124;19;129614;-43
2022/12/04 05:57:56;;;;;;;12.13;8.35;;;;;;;16.83;32.13;101523.66;16125145;19;129257;-42
2022/12/04 06:03:17;;;;;;;11.50;8.90;;;;;;;16.83;31.84;101522.78;16125639;19;129979;-43
2022/12/04 06:08:40;;;;;;;12.80;9.18;;;;;;;16.83;31.93;101508.97;16126470;19;129847;-43
2022/12/04 06:14:04;;;;;;;10.27;8.20;;;;;;;16.81;31.92;101508.34;16123998;19;130016;-43
2022/12/04 06:19:26;;;;;;;12.55;8.20;;;;;;;16.80;32.17;101520.50;16125021;19;132207;-43
2022/12/04 06:24:47;;;;;;;13.60;9.25;;;;;;;16.78;31.64;101526.22;16124564;19;129098;-43
2022/12/04 06:30:10;;;;;;;10.40;7.72;;;;;;;16.76;31.97;101528.34;16125377;19;129410;-43
2022/12/04 06:35:31;;;;;;;11.10;8.30;;;;;;;16.75;32.02;101526.66;16126158;19;130204;-44
2022/12/04 06:40:53;;;;;;;11.50;8.18;;;;;;;16.80;31.50;101535.16;16124482;19;128915;-43
2022/12/04 06:46:21;;;;;;;9.77;7.55;;;;;;;17.15;31.32;101531.16;16123763;19;129189;-45
2022/12/04 06:51:43;;;;;;;9.73;7.07;;;;;;;17.78;30.83;101535.84;16122156;19;129702;-44
2022/12/04 06:57:04;;;;;;;9.63;7.28;;;;;;;18.44;30.69;101541.84;16118757;19;129370;-46
2022/12/04 07:02:26;;;;;;;8.75;6.82;;;;;;;19.04;30.18;101543.03;16123674;19;129755;-44
2022/12/04 07:07:48;;;;;;;8.73;7.10;;;;;;;19.53;29.62;101529.09;16121353;19;129304;-46
2022/12/04 07:13:10;;;;;;;10.02;6.93;;;;;;;19.78;29.31;101525.28;16120863;19;129368;-45
2022/12/04 07:18:33;;;;;;;8.95;7.18;;;;;;;19.82;29.02;101525.66;16120798;19;129610;-46
2022/12/04 07:23:57;;;;;;;9.98;7.47;;;;;;;19.73;28.98;101550.16;16120891;19;129635;-45
2022/12/04 07:29:19;;;;;;;9.57;7.30;;;;;;;19.56;29.39;101549.16;16118444;19;129493;-44
2022/12/04 07:34:41;;;;;;;9.00;7.35;;;;;;;19.39;29.34;101558.13;16117958;19;131002;-45
2022/12/04 07:40:03;;;;;;;10.32;7.82;;;;;;;19.20;29.18;101562.88;16117875;19;129603;-43
2022/12/04 07:45:25;;;;;;;9.32;7.50;;;;;;;19.02;29.75;101560.97;16114752;19;130088;-44
2022/12/04 07:50:47;;;;;;;10.32;7.80;;;;;;;18.83;29.62;101562.94;16118399;19;129312;-46
2022/12/04 07:56:10;;;;;;;11.07;8.35;;;;;;;18.67;29.97;101568.03;16117186;19;130405;-44
2022/12/04 08:01:32;;;;;;;10.07;7.85;;;;;;;18.52;29.79;101573.09;16117791;19;131182;-45
2022/12/04 08:06:54;;;;;;;10.48;8.32;;;;;;;18.39;30.02;101579.59;16118100;19;129339;-44
2022/12/04 08:12:15;;;;;;;10.75;8.48;;;;;;;18.35;30.02;101587.50;16127902;19;129687;-44
2022/12/04 08:17:37;;;;;;;14.43;7.97;;;;;;;18.64;29.70;101587.03;16131364;19;129540;-47
2022/12/04 08:22:59;;;;;;;9.63;7.20;;;;;;;19.11;29.47;101581.78;16131836;19;130179;-46
2022/12/04 08:28:20;;;;;;;11.48;8.32;;;;;;;19.59;29.40;101571.72;16132430;19;129460;-44
2022/12/04 08:33:44;;;;;;;21.15;9.10;;;;;;;20.00;28.63;101577.50;16132003;19;129199;-47
2022/12/04 08:39:06;;;;;;;21.80;10.18;;;;;;;20.18;28.57;101579.34;16128870;19;129314;-44
2022/12/04 08:44:27;;;;;;;21.85;10.98;;;;;;;20.14;28.77;101572.56;16130613;19;129304;-43
2022/12/04 08:49:49;;;;;;;28.30;11.20;;;;;;;20.00;29.05;101577.50;16130151;19;130164;-45
2022/12/04 08:55:11;;;;;;;20.33;11.48;;;;;;;19.83;29.32;101577.31;16128062;19;135120;-45
2022/12/04 09:00:33;;;;;;;19.98;10.68;;;;;;;19.62;29.44;101574.03;16132328;19;129284;-43
2022/12/04 09:05:58;;;;;;;20.05;11.38;;;;;;;19.43;29.74;101577.97;16130362;19;129609;-43
2022/12/04 09:11:21;;;;;;;;;;;;;;;19.20;29.83;101579.53;16128604;19;133053;-42
2022/12/04 09:16:43;;;;;;;22.42;11.68;;;;;;;19.06;30.50;101579.72;16127299;19;130603;-42
2022/12/04 09:22:05;;;;;;;18.50;11.20;;;;;;;18.89;30.38;101579.47;16125679;19;129972;-43
2022/12/04 09:27:27;;;;;;;19.65;11.00;;;;;;;18.75;30.66;101578.78;16125923;19;130792;-43
2022/12/04 09:32:49;;;;;;;19.15;11.18;;;;;;;18.62;30.85;101584.47;16128799;19;129556;-44
2022/12/04 09:38:10;;;;;;;17.42;10.93;;;;;;;18.48;31.20;101585.69;16123987;19;130690;-42
2022/12/04 09:43:49;;;;;;;14.82;11.10;;;;;;;18.38;30.86;101583.44;16126648;19;129352;-43
2022/12/04 09:49:37;;;;;;;17.65;11.23;;;;;;;18.24;31.00;101589.09;16126678;19;132948;-43
2022/12/04 09:55:02;;;;;;;22.65;10.85;;;;;;;18.15;31.17;101593.25;16123847;19;129617;-45
2022/12/04 10:00:26;;;;;;;21.37;10.60;;;;;;;18.12;31.44;101597.28;16127724;19;129188;-43
2022/12/04 10:05:50;;;;;;;16.38;10.50;;;;;;;18.17;31.60;101590.25;16129932;19;129754;-43
2022/12/04 10:11:46;;;;;;;17.02;9.60;;;;;;;18.24;31.28;101582.72;16125583;19;129385;-43
2022/12/04 10:17:23;;;;;;;14.55;9.95;;;;;;;18.33;30.90;101581.38;16145166;19;131208;-46
2022/12/04 10:22:55;;;;;;;13.20;9.05;;;;;;;18.38;31.19;101584.28;16146898;19;131295;-44
2022/12/04 10:28:29;;;;;;;13.80;9.43;;;;;;;18.44;31.27;101588.94;16142490;19;129277;-43
2022/12/04 10:33:54;;;;;;;16.80;8.95;;;;;;;18.49;30.88;101591.03;16141366;19;129529;-43
2022/12/04 10:39:32;;;;;;;14.98;8.77;;;;;;;18.67;31.20;101592.97;16143245;19;129280;-50
2022/12/04 10:44:54;;;;;;;14.07;8.02;;;;;;;18.86;30.94;101574.41;16148977;19;129369;-41
2022/12/04 10:50:18;;;;;;;11.45;7.38;;;;;;;19.11;31.19;101576.22;16122851;19;134056;-44
2022/12/04 10:55:40;;;;;;;12.38;7.28;;;;;;;19.35;30.60;101568.88;16122543;19;129483;-51
2022/12/04 11:01:11;;;;;;;10.73;6.68;;;;;;;19.52;30.59;101555.16;16123003;19;130688;-47
2022/12/04 11:06:34;;;;;;;14.48;6.95;;;;;;;19.56;30.44;101566.66;16121300;19;129671;-52
2022/12/04 11:12:15;;;;;;;17.92;7.25;;;;;;;19.52;30.03;101560.72;16123998;19;134566;-53
2022/12/04 11:17:37;;;;;;;19.50;7.30;;;;;;;19.43;30.40;101555.75;16120709;19;129404;-44
2022/12/04 11:22:59;;;;;;;17.95;7.35;;;;;;;19.38;30.51;101556.47;16095474;19;130437;-44
2022/12/04 11:28:24;;;;;;;18.25;8.25;;;;;;;19.28;30.51;101562.56;16120354;19;129722;-40
2022/12/04 11:34:14;;;;;;;14.90;7.28;;;;;;;19.18;30.52;101557.56;16120673;19;130279;-45
2022/12/04 11:39:40;;;;;;;17.95;7.03;;;;;;;19.06;30.66;101551.97;16119531;19;130764;-49
2022/12/04 11:45:18;;;;;;;19.65;8.05;;;;;;;18.99;30.71;101556.75;16124774;19;130233;-51
2022/12/04 11:50:56;;;;;;;20.42;8.10;;;;;;;18.95;30.93;101561.09;16134108;19;130643;-51
2022/12/04 11:56:28;;;;;;;9.98;7.32;;;;;;;19.03;30.32;101555.22;16133455;19;129158;-49
2022/12/04 12:02:19;;;;;;;12.23;6.80;;;;;;;19.24;30.53;101550.25;16133889;19;129755;-51
2022/12/04 12:08:07;;;;;;;9.70;6.72;;;;;;;19.48;29.99;101542.88;16134169;19;129825;-49
2022/12/04 12:13:32;;;;;;;12.73;7.57;;;;;;;19.60;29.48;101522.63;16130629;19;129095;-50
2022/12/04 12:19:07;;;;;;;14.43;7.20;;;;;;;19.64;29.30;101513.56;16134305;19;129241;-50
2022/12/04 12:24:35;;;;;;;11.23;7.53;;;;;;;19.60;29.35;101515.13;16133234;19;129617;-50
2022/12/04 12:30:15;;;;;;;10.43;6.68;;;;;;;19.53;29.61;101500.53;16132391;19;129808;-48
2022/12/04 12:35:56;;;;;;;10.48;7.35;;;;;;;19.40;29.29;101489.63;16134251;19;129794;-48
2022/12/04 12:41:23;;;;;;;11.43;7.22;;;;;;;19.27;29.54;101491.53;16132707;19;129810;-50
2022/12/04 12:46:52;;;;;;;8.80;7.22;;;;;;;19.14;29.85;101492.53;16132906;19;129434;-50
2022/12/04 12:52:24;;;;;;;10.07;7.70;;;;;;;19.01;29.75;101493.59;16133267;19;129515;-50
2022/12/04 12:57:55;;;;;;;11.55;7.10;;;;;;;18.89;29.97;101501.84;16126447;19;129625;-50
2022/12/04 13:03:17;;;;;;;9.20;7.38;;;;;;;18.79;30.42;101495.19;16131336;19;129765;-49
2022/12/04 13:08:46;;;;;;;9.77;7.20;;;;;;;18.76;30.04;101491.78;16132496;19;131008;-49
2022/12/04 13:14:12;;;;;;;11.38;7.10;;;;;;;18.87;29.64;101494.84;16129157;19;129718;-52
2022/12/04 13:19:56;;;;;;;9.15;7.53;;;;;;;19.07;29.76;101497.34;16127409;19;130086;-51
2022/12/04 13:25:39;;;;;;;8.10;6.65;;;;;;;19.28;29.13;101497.91;16126128;19;130151;-44
2022/12/04 13:31:19;;;;;;;11.20;7.63;;;;;;;19.45;31.76;101500.84;16125227;19;130975;-45
2022/12/04 13:36:41;;;;;;;11.30;8.80;;;;;;;19.53;30.55;101494.97;16124889;19;130107;-44
2022/12/04 13:42:19;;;;;;;13.73;9.48;;;;;;;19.57;30.41;101496.16;16122007;19;131001;-48
2022/12/04 13:47:41;;;;;;;15.77;8.70;;;;;;;19.65;30.37;101501.38;16124393;19;129783;-41
2022/12/04 13:53:04;;;;;;;10.88;8.52;;;;;;;19.84;29.94;101492.94;16124668;19;130383;-43
2022/12/04 13:58:32;;;;;;;13.27;8.05;;;;;;;20.15;29.45;101499.25;16123626;19;131023;-42
2022/12/04 14:03:56;;;;;;;12.68;7.60;;;;;;;20.52;29.32;101486.97;16121975;19;129673;-42
2022/12/04 14:09:25;;;;;;;13.35;8.50;;;;;;;20.87;28.92;101492.47;16120583;19;130106;-46
2022/12/04 14:14:54;;;;;;;15.50;7.95;;;;;;;21.16;28.37;101505.50;16120396;19;129376;-43
2022/12/04 14:20:28;;;;;;;14.80;7.43;;;;;;;21.27;28.54;101492.66;16122840;19;133905;-48
2022/12/04 14:25:55;;;;;;;10.23;7.47;;;;;;;21.25;28.55;101486.47;16121491;19;130881;-45
2022/12/04 14:31:39;;;;;;;10.82;7.30;;;;;;;21.21;28.52;101480.59;16118797;19;129728;-41
2022/12/04 14:37:01;;;;;;;14.18;8.07;;;;;;;21.06;28.62;101483.91;16121332;19;129713;-42
2022/12/04 14:42:30;;;;;;;18.67;7.40;;;;;;;20.85;29.17;101491.88;16120263;19;130869;-43
2022/12/04 14:48:23;;;;;;;10.07;7.07;;;;;;;20.62;29.14;101489.13;16120613;19;129073;-43
2022/12/04 14:53:48;;;;;;;12.75;7.00;;;;;;;20.37;29.65;101499.44;16121639;19;129440;-45
2022/12/04 14:59:19;;;;;;;11.43;7.35;;;;;;;20.14;29.40;101511.47;16120051;19;129610;-43
2022/12/04 15:04:45;;;;;;;10.25;6.97;;;;;;;19.92;29.78;101514.81;16123767;19;129747;-42
2022/12/04 15:16:18;;;;;;;11.52;6.55;;;;;;;19.56;30.41;101522.25;16118487;19;130006;-44
2022/12/04 15:21:41;;;;;;;11.90;6.93;;;;;;;19.43;30.77;101528.84;16118765;19;130128;-44
2022/12/04 15:27:05;;;;;;;12.48;7.45;;;;;;;19.35;30.67;101520.88;16118145;19;129364;-46
2022/12/04 15:32:30;;;;;;;13.97;6.70;;;;;;;19.32;30.62;101527.72;16120952;19;129837;-42
2022/12/04 15:37:53;;;;;;;9.68;6.80;;;;;;;19.39;30.79;101527.63;16116481;19;130874;-47
2022/12/04 15:43:16;;;;;;;13.00;6.68;;;;;;;19.52;30.76;101521.84;16116081;19;130516;-45
2022/12/04 15:48:38;;;;;;;13.52;6.65;;;;;;;19.73;30.20;101527.94;16117335;19;130022;-47
2022/12/04 15:54:17;;;;;;;9.80;6.15;;;;;;;19.93;30.25;101524.84;16116242;19;130546;-48
2022/12/04 15:59:39;;;;;;;10.63;6.50;;;;;;;20.09;30.26;101525.22;16117697;19;129847;-47
2022/12/04 16:05:18;;;;;;;12.65;7.03;;;;;;;20.27;29.77;101527.88;16119822;19;129696;-45
2022/12/04 16:10:40;;;;;;;10.48;6.63;;;;;;;20.38;29.70;101534.50;16120696;19;129708;-46
2022/12/04 16:16:12;;;;;;;9.73;7.13;;;;;;;20.46;29.70;101541.63;16116805;19;129543;-47
2022/12/04 16:21:34;;;;;;;10.15;6.10;;;;;;;20.47;30.12;101551.63;16118298;19;129263;-57
2022/12/04 16:26:58;;;;;;;8.45;6.35;;;;;;;20.45;29.61;101537.13;16117638;19;130250;-47
2022/12/04 16:32:26;;;;;;;7.13;6.43;;;;;;;20.38;30.06;101531.72;16123604;19;129324;-49
2022/12/04 16:37:47;;;;;;;9.80;7.00;;;;;;;20.29;30.16;101535.97;16130485;19;129757;-47
2022/12/04 16:43:14;;;;;;;9.35;6.50;;;;;;;20.20;30.25;101534.63;16130199;19;129592;-54
2022/12/04 16:48:36;;;;;;;8.10;6.43;;;;;;;20.10;30.05;101543.56;16130218;19;131939;-55
2022/12/04 16:53:58;;;;;;;9.85;6.55;;;;;;;19.99;30.41;101542.47;16127613;19;130128;-50
2022/12/04 16:59:21;;;;;;;9.55;6.78;;;;;;;19.86;30.62;101543.53;16125760;19;129681;-58
2022/12/04 17:04:42;;;;;;;9.30;7.40;;;;;;;19.74;30.52;101559.31;16127998;19;129436;-53
2022/12/04 17:10:05;;;;;;;11.02;8.10;;;;;;;19.64;30.80;101555.22;16127862;19;129478;-43
2022/12/04 17:15:26;;;;;;;17.90;7.18;;;;;;;19.64;30.38;101557.13;16128851;19;129685;-45
2022/12/04 17:20:48;;;;;;;9.90;7.20;;;;;;;19.77;30.28;101569.97;16127171;19;129645;-45
2022/12/04 17:26:13;;;;;;;8.88;6.68;;;;;;;19.91;30.60;101568.66;16127547;19;129444;-47
2022/12/04 17:31:35;;;;;;;11.55;6.63;;;;;;;20.08;30.16;101568.81;16129051;19;129725;-47
2022/12/04 17:36:57;;;;;;;12.27;6.47;;;;;;;20.22;29.92;101565.81;16124174;19;129568;-48
2022/12/04 17:42:19;;;;;;;9.70;5.63;;;;;;;20.31;30.11;101566.28;16121515;19;129620;-44
2022/12/04 17:47:40;;;;;;;9.82;6.30;;;;;;;20.34;29.87;101569.44;16124045;19;130834;-46
2022/12/04 17:53:02;;;;;;;6.55;5.28;;;;;;;20.35;30.03;101567.47;16124773;19;130099;-47
2022/12/04 17:58:24;;;;;;;8.52;5.68;;;;;;;20.38;29.92;101572.56;16121667;19;129408;-45
2022/12/04 18:03:54;;;;;;;5.97;5.38;;;;;;;20.43;29.75;101567.97;16122195;19;131253;-45
2022/12/04 18:09:16;;;;;;;10.82;6.93;;;;;;;20.43;30.04;101581.03;16122786;19;129672;-49
2022/12/04 18:14:38;;;;;;;8.35;6.35;;;;;;;20.36;29.98;101575.59;16126019;19;129275;-45
2022/12/04 18:19:59;;;;;;;8.98;6.75;;;;;;;20.28;29.69;101574.03;16126160;19;129460;-48
2022/12/04 18:25:25;;;;;;;10.73;6.93;;;;;;;20.18;30.20;101561.81;16122007;19;130365;-44
2022/12/04 18:30:47;;;;;;;9.40;6.35;;;;;;;20.07;29.89;101571.81;16125720;19;129784;-46
2022/12/04 18:36:17;;;;;;;9.40;6.70;;;;;;;19.96;30.03;101574.31;16124295;19;130369;-46
2022/12/04 18:41:39;;;;;;;10.48;6.63;;;;;;;19.84;30.57;101570.69;16125457;19;129458;-45
2022/12/04 18:47:01;;;;;;;9.95;7.15;;;;;;;19.77;30.33;101567.19;16122604;19;129518;-44
2022/12/04 18:52:22;;;;;;;10.98;6.97;;;;;;;19.76;30.77;101569.09;16118987;19;129263;-42
2022/12/04 18:57:44;;;;;;;13.05;7.88;;;;;;;19.79;31.21;101567.78;16119949;19;129793;-43
2022/12/04 19:03:06;;;;;;;13.50;7.38;;;;;;;19.85;30.77;101564.03;16115766;19;131082;-44
2022/12/04 19:08:28;;;;;;;11.40;7.28;;;;;;;19.91;30.69;101563.09;16121499;19;129552;-43
2022/12/04 19:13:57;;;;;;;10.60;7.10;;;;;;;19.91;31.08;101579.75;16118845;19;129234;-44
2022/12/04 19:19:19;;;;;;;9.50;6.55;;;;;;;19.86;30.64;101576.84;16116439;19;129759;-43
2022/12/04 19:24:41;;;;;;;8.57;6.07;;;;;;;19.77;30.92;101575.50;16120388;19;130354;-43
2022/12/04 19:30:04;;;;;;;9.15;6.45;;;;;;;19.73;31.16;101571.50;16117470;19;129117;-43
2022/12/04 19:35:26;;;;;;;8.80;6.55;;;;;;;19.72;31.21;101578.13;16118162;19;130023;-44
2022/12/04 19:40:48;;;;;;;7.43;5.88;;;;;;;19.75;31.00;101591.56;16117430;19;129499;-44
2022/12/04 19:46:14;;;;;;;8.40;6.00;;;;;;;19.80;30.69;101584.19;16117066;19;129657;-42
2022/12/04 19:51:38;;;;;;;;;;;;;;;19.85;30.54;101580.72;16119264;19;133981;-44
2022/12/04 19:57:00;;;;;;;6.13;5.00;;;;;;;19.94;30.89;101595.09;16117003;19;129994;-42
2022/12/04 20:02:22;;;;;;;7.40;5.63;;;;;;;19.99;30.72;101593.31;16116991;19;129368;-43
2022/12/04 20:07:43;;;;;;;8.02;5.20;;;;;;;20.05;30.70;101579.56;16129845;19;130154;-47
2022/12/04 20:13:05;;;;;;;7.38;5.28;;;;;;;20.05;30.41;101601.78;16130849;19;129427;-44
2022/12/04 20:18:27;;;;;;;7.45;5.00;;;;;;;20.02;30.27;101585.59;16133118;19;128968;-43
2022/12/04 20:23:50;;;;;;;6.68;4.70;;;;;;;19.95;30.41;101597.63;16130550;19;130064;-44
2022/12/04 20:29:15;;;;;;;6.30;4.82;;;;;;;19.86;30.50;101592.69;16128753;19;130444;-44
2022/12/04 20:34:36;;;;;;;6.87;4.60;;;;;;;19.77;30.47;101594.94;16131080;19;130725;-43
2022/12/04 20:40:06;;;;;;;7.72;5.22;;;;;;;19.66;31.09;101600.22;16128967;19;129841;-47
2022/12/04 20:45:29;;;;;;;6.78;4.43;;;;;;;19.57;31.58;101601.63;16130623;19;129776;-42
2022/12/04 20:50:51;;;;;;;10.70;5.40;;;;;;;19.49;31.81;101604.75;16132270;19;129217;-43
2022/12/04 20:56:13;;;;;;;12.75;5.22;;;;;;;19.44;32.22;101601.84;16130541;19;130279;-43
2022/12/04 21:01:36;;;;;;;8.70;4.50;;;;;;;19.50;32.27;101612.00;16132937;19;129768;-41
2022/12/04 21:06:58;;;;;;;12.65;4.78;;;;;;;19.75;32.15;101608.22;16131187;19;129962;-44
2022/12/04 21:18:03;;;;;;;8.77;4.82;;;;;;;20.04;31.98;101612.03;16126231;19;129401;-46
2022/12/04 21:23:25;;;;;;;6.13;4.63;;;;;;;20.04;31.88;101611.22;16126355;19;130064;-46
2022/12/04 21:28:47;;;;;;;9.05;5.22;;;;;;;19.98;31.92;101597.16;16127957;19;130051;-42
2022/12/04 21:34:12;;;;;;;7.05;4.63;;;;;;;19.90;32.37;101600.28;16126567;19;129349;-45
2022/12/04 21:39:34;;;;;;;7.03;4.70;;;;;;;19.80;32.09;101595.31;16130824;19;129417;-43
2022/12/04 21:45:00;;;;;;;8.30;4.90;;;;;;;19.71;32.50;101590.31;16130126;19;130462;-44
2022/12/04 21:50:22;;;;;;;;;;;;;;;19.57;32.59;101590.53;16127370;19;130824;-43
2022/12/04 21:55:48;;;;;;;9.30;5.70;;;;;;;19.51;32.33;101588.72;16129767;19;129285;-43
2022/12/04 22:01:12;;;;;;;7.95;5.50;;;;;;;19.43;32.88;101594.59;16126807;19;129991;-43
2022/12/04 22:06:35;;;;;;;7.28;5.38;;;;;;;19.35;32.77;101593.84;16127735;19;129724;-43
2022/12/04 22:11:56;;;;;;;8.27;5.47;;;;;;;19.28;32.92;101598.66;16126608;19;129984;-43
2022/12/04 22:17:18;;;;;;;7.88;5.38;;;;;;;19.22;32.55;101597.66;16123171;19;129836;-43
2022/12/04 22:22:40;;;;;;;16.10;6.72;;;;;;;19.16;32.96;101600.47;16123005;19;129686;-42
2022/12/04 22:28:01;;;;;;;9.13;5.75;;;;;;;19.04;32.77;101592.09;16123612;19;130236;-42
2022/12/04 22:33:23;;;;;;;10.80;6.55;;;;;;;18.94;32.90;101598.22;16112967;19;130577;-43
2022/12/04 22:38:45;;;;;;;10.02;6.45;;;;;;;18.84;32.83;101600.66;16118467;19;129645;-42
2022/12/04 22:44:27;;;;;;;10.07;6.65;;;;;;;18.76;32.61;101613.75;16119794;19;130203;-43
2022/12/04 22:49:49;;;;;;;11.10;6.55;;;;;;;18.70;32.83;101619.38;16123719;19;129472;-43
2022/12/04 22:55:11;;;;;;;8.77;5.93;;;;;;;18.64;32.96;101626.69;16123481;19;129640;-43
2022/12/04 23:00:32;;;;;;;11.15;6.72;;;;;;;18.59;32.92;101615.41;16123520;19;129650;-43
2022/12/04 23:05:58;;;;;;;8.52;5.60;;;;;;;18.54;32.80;101634.69;16127816;19;130875;-43
2022/12/04 23:11:20;;;;;;;13.75;6.35;;;;;;;18.50;33.11;101619.56;16121887;19;129632;-45
2022/12/04 23:16:42;;;;;;;8.30;5.85;;;;;;;18.44;32.93;101618.56;16119814;19;129499;-42
2022/12/04 23:22:04;;;;;;;8.95;5.65;;;;;;;18.39;32.80;101619.25;16120300;19;130685;-43
2022/12/04 23:27:26;;;;;;;6.57;4.88;;;;;;;18.33;33.08;101614.59;16118997;19;129392;-43
2022/12/04 23:32:47;;;;;;;8.10;5.65;;;;;;;18.30;32.90;101618.66;16119888;19;129193;-43
2022/12/04 23:38:09;;;;;;;8.93;5.43;;;;;;;18.27;32.75;101613.59;16118969;19;129417;-44
2022/12/04 23:43:31;;;;;;;8.65;5.72;;;;;;;18.22;32.80;101607.00;16121221;19;133562;-42
2022/12/04 23:48:54;;;;;;;9.85;5.65;;;;;;;18.19;33.03;101613.03;16119210;19;129504;-42
2022/12/04 23:54:15;;;;;;;9.10;5.40;;;;;;;18.14;32.75;101610.94;16116795;19;129741;-43
2022/12/04 23:59:37;;;;;;;8.55;4.88;;;;;;;18.11;32.99;101609.44;16118309;19;130232;-44
